Time;durP1;ratioP1;P1;durP2;ratioP2;P2;SDS_P1;SDS_P2;PMS_P1;PMS_P2;Temp;Humidity;BMP_temperature;BMP_pressure;BME280_temperature;BME280_humidity;BME280_pressure;Samples;Min_cycle;Max_cycle;Signal;HPM_P1;HPM_P2
2022/08/27 00:01:21;;;;;;;16.60;10.33;;;23.40;1.00;;;;;;5028258;28;20454;-80
2022/08/27 00:03:47;;;;;;;15.17;9.37;;;23.40;1.00;;;;;;5028932;28;20427;-80
2022/08/27 00:06:23;;;;;;;16.00;9.50;;;23.40;1.00;;;;;;5031511;28;20939;-80
2022/08/27 00:08:57;;;;;;;18.60;9.53;;;23.40;1.00;;;;;;5035872;28;20260;-80
2022/08/27 00:11:26;;;;;;;16.50;9.77;;;23.40;1.00;;;;;;5033897;28;20788;-80
2022/08/27 00:13:52;;;;;;;14.70;9.70;;;23.40;1.00;;;;;;5029059;28;20487;-80
2022/08/27 00:16:27;;;;;;;27.77;10.53;;;23.40;1.00;;;;;;5016104;28;20951;-80
2022/08/27 00:18:57;;;;;;;15.97;9.47;;;23.30;1.00;;;;;;5022773;28;20438;-80
2022/08/27 00:21:33;;;;;;;18.13;9.73;;;23.30;1.00;;;;;;5021297;28;20504;-80
2022/08/27 00:23:59;;;;;;;14.37;8.40;;;23.30;1.00;;;;;;5028137;28;20434;-72
2022/08/27 00:26:25;;;;;;;14.67;9.20;;;23.20;1.00;;;;;;5020353;28;21095;-72
2022/08/27 00:28:51;;;;;;;15.13;9.90;;;23.10;1.00;;;;;;5024152;28;20436;-72
2022/08/27 00:31:17;;;;;;;17.10;9.43;;;23.10;1.00;;;;;;5017938;28;20452;-72
2022/08/27 00:33:43;;;;;;;16.03;9.30;;;23.10;1.00;;;;;;5034883;28;20542;-72
2022/08/27 00:36:11;;;;;;;16.07;9.53;;;23.10;1.00;;;;;;5021462;28;20189;-72
2022/08/27 00:38:40;;;;;;;12.63;8.03;;;23.00;1.00;;;;;;5026166;28;20407;-72
2022/08/27 00:41:08;;;;;;;20.50;9.87;;;23.10;1.00;;;;;;5026239;28;20471;-72
2022/08/27 00:43:56;;;;;;;15.27;9.80;;;23.00;1.00;;;;;;5024638;28;20434;-72
2022/08/27 00:46:40;;;;;;;15.70;9.13;;;23.00;1.00;;;;;;5029884;28;20440;-72
2022/08/27 00:49:15;;;;;;;14.90;9.30;;;23.00;1.00;;;;;;5016685;28;20504;-72
2022/08/27 00:51:42;;;;;;;15.80;9.40;;;23.00;1.00;;;;;;5034451;28;20496;-72
2022/08/27 00:54:08;;;;;;;20.90;9.70;;;23.00;1.00;;;;;;5019321;28;21614;-72
2022/08/27 00:56:44;;;;;;;17.80;8.13;;;23.00;1.00;;;;;;5018006;28;20435;-72
2022/08/27 00:59:15;;;;;;;14.67;8.47;;;23.00;1.00;;;;;;5017062;28;20522;-72
2022/08/27 01:02:17;;;;;;;12.10;8.37;;;23.00;1.00;;;;;;5018979;28;20464;-72
2022/08/27 01:04:30;;;;;;;14.50;9.13;;;23.00;1.00;;;;;;5019825;28;20443;-72
2022/08/27 01:06:57;;;;;;;19.23;9.63;;;23.00;1.00;;;;;;5027788;28;20764;-72
2022/08/27 01:09:24;;;;;;;21.23;10.27;;;22.90;1.00;;;;;;5021784;28;20522;-72
2022/08/27 01:11:51;;;;;;;15.80;8.93;;;22.90;1.00;;;;;;5019556;28;20474;-72
2022/08/27 01:14:18;;;;;;;18.93;8.20;;;22.90;1.00;;;;;;5018179;28;20486;-72
2022/08/27 01:16:50;;;;;;;16.10;9.50;;;22.80;1.00;;;;;;5019251;28;20511;-72
2022/08/27 01:19:38;;;;;;;12.53;9.07;;;22.80;1.00;;;;;;5017461;28;20982;-72
2022/08/27 01:22:40;;;;;;;13.43;7.93;;;22.80;1.00;;;;;;5018656;28;20415;-72
2022/08/27 01:25:17;;;;;;;13.03;7.43;;;22.80;1.00;;;;;;5020871;28;20441;-80
2022/08/27 01:27:46;;;;;;;12.77;8.40;;;22.80;1.00;;;;;;5035170;28;20492;-80
2022/08/27 01:30:15;;;;;;;13.53;8.43;;;22.80;1.00;;;;;;5035058;28;20446;-80
2022/08/27 01:32:42;;;;;;;15.30;8.50;;;22.80;1.00;;;;;;5028476;28;20462;-80
2022/08/27 01:35:11;;;;;;;17.53;7.97;;;22.80;1.00;;;;;;5033826;28;20480;-80
2022/08/27 01:38:03;;;;;;;11.63;8.70;;;22.90;1.00;;;;;;5037780;28;20413;-80
2022/08/27 01:40:33;;;;;;;15.93;8.00;;;22.90;1.00;;;;;;5034290;28;20465;-80
2022/08/27 01:43:38;;;;;;;14.80;8.23;;;22.90;1.00;;;;;;5028674;28;20933;-80
2022/08/27 01:46:20;;;;;;;15.33;8.07;;;22.90;1.00;;;;;;5037478;28;20518;-80
2022/08/27 01:48:46;;;;;;;15.37;8.57;;;23.00;1.00;;;;;;5019577;28;20455;-80
2022/08/27 01:51:27;;;;;;;18.87;7.00;;;23.00;1.00;;;;;;5026948;28;20456;-80
2022/08/27 01:53:56;;;;;;;17.07;8.50;;;23.00;1.00;;;;;;5015437;28;20555;-79
2022/08/27 01:56:22;;;;;;;12.30;7.83;;;23.00;1.00;;;;;;5029867;28;20429;-72
2022/08/27 01:58:48;;;;;;;19.73;8.00;;;23.00;1.00;;;;;;5017032;28;20427;-72
2022/08/27 02:01:15;;;;;;;11.30;7.53;;;23.00;1.00;;;;;;5028109;28;20182;-72
2022/08/27 02:03:41;;;;;;;17.60;7.80;;;22.90;1.00;;;;;;5032068;28;20576;-72
2022/08/27 02:06:10;;;;;;;16.10;7.63;;;22.90;1.00;;;;;;5026581;28;20462;-72
2022/08/27 02:08:37;;;;;;;12.70;7.90;;;22.90;1.00;;;;;;5018114;28;20435;-72
2022/08/27 02:11:04;;;;;;;15.10;7.90;;;22.90;1.00;;;;;;5031917;28;20424;-72
2022/08/27 02:13:29;;;;;;;22.23;7.80;;;22.80;1.00;;;;;;5019872;28;20440;-72
2022/08/27 02:15:55;;;;;;;16.87;8.23;;;22.80;1.00;;;;;;5024297;28;20489;-72
2022/08/27 02:18:21;;;;;;;14.00;7.90;;;22.80;1.00;;;;;;5025498;28;20189;-72
2022/08/27 02:20:51;;;;;;;11.87;7.37;;;22.70;1.00;;;;;;5018969;28;20445;-72
2022/08/27 02:23:18;;;;;;;16.83;7.90;;;22.70;1.00;;;;;;5026755;28;20479;-72
2022/08/27 02:25:47;;;;;;;15.50;8.07;;;22.60;1.00;;;;;;5027719;28;20779;-72
2022/08/27 02:28:13;;;;;;;15.07;8.03;;;22.60;1.00;;;;;;5021369;28;20180;-72
2022/08/27 02:30:39;;;;;;;11.03;7.60;;;22.50;1.00;;;;;;5028642;28;21034;-72
2022/08/27 02:33:05;;;;;;;18.80;8.47;;;22.50;1.00;;;;;;5031272;28;20427;-72
2022/08/27 02:35:36;;;;;;;14.87;8.33;;;22.50;1.00;;;;;;5030058;28;20208;-72
2022/08/27 02:38:02;;;;;;;16.43;8.90;;;22.50;1.00;;;;;;5029620;28;20180;-72
2022/08/27 02:40:57;;;;;;;19.93;9.10;;;22.50;1.00;;;;;;5020453;28;20812;-81
2022/08/27 02:43:57;;;;;;;9.70;7.60;;;22.50;1.00;;;;;;5026479;28;20407;-80
2022/08/27 02:47:15;;;;;;;19.13;8.57;;;22.50;1.00;;;;;;5024600;28;20429;-80
2022/08/27 02:50:21;;;;;;;18.30;9.63;;;22.50;1.00;;;;;;5025273;28;20417;-80
2022/08/27 02:52:57;;;;;;;13.67;8.03;;;22.60;1.00;;;;;;5023781;28;20789;-80
2022/08/27 02:55:23;;;;;;;14.30;8.50;;;22.50;1.00;;;;;;5034915;28;20437;-73
2022/08/27 02:57:49;;;;;;;15.40;8.80;;;22.60;1.00;;;;;;5029282;28;20427;-72
2022/08/27 03:00:17;;;;;;;18.03;9.10;;;22.50;1.00;;;;;;5024220;28;20775;-72
2022/08/27 03:02:43;;;;;;;15.87;8.13;;;22.50;1.00;;;;;;5025150;28;20562;-73
2022/08/27 03:05:11;;;;;;;19.13;8.90;;;22.50;1.00;;;;;;5030929;28;20937;-72
2022/08/27 03:07:37;;;;;;;12.90;8.80;;;22.50;1.00;;;;;;5020931;28;20810;-73
2022/08/27 03:10:05;;;;;;;20.23;9.43;;;22.60;1.00;;;;;;5025288;28;20456;-73
2022/08/27 03:12:30;;;;;;;18.73;9.40;;;22.60;1.00;;;;;;5025699;28;20604;-72
2022/08/27 03:14:57;;;;;;;16.10;8.70;;;22.50;1.00;;;;;;5027605;28;20444;-73
2022/08/27 03:20:17;;;;;;;12.90;8.63;;;22.30;1.00;;;;;;5025713;28;20422;-73
2022/08/27 03:22:44;;;;;;;18.27;9.47;;;22.30;1.00;;;;;;5027140;28;20504;-72
2022/08/27 03:25:11;;;;;;;12.10;9.10;;;22.20;1.00;;;;;;5025173;28;20553;-80
2022/08/27 03:27:37;;;;;;;14.00;8.83;;;22.20;1.00;;;;;;5023567;28;20519;-80
2022/08/27 03:30:27;;;;;;;15.53;8.50;;;22.10;1.00;;;;;;5027523;28;20504;-80
2022/08/27 03:33:14;;;;;;;15.73;9.43;;;22.00;1.00;;;;;;5030221;28;20458;-80
2022/08/27 03:35:57;;;;;;;16.17;9.03;;;22.00;1.00;;;;;;5034066;28;20440;-81
2022/08/27 03:38:45;;;;;;;19.97;9.87;;;22.00;1.00;;;;;;5030823;28;20418;-80
2022/08/27 03:41:12;;;;;;;17.77;10.13;;;22.00;1.00;;;;;;5029287;28;20519;-80
2022/08/27 03:47:26;;;;;;;13.73;9.90;;;21.90;1.00;;;;;;5024889;28;20456;-80
2022/08/27 03:49:59;;;;;;;16.23;9.07;;;22.00;1.00;;;;;;5014741;28;20441;-80
2022/08/27 03:52:35;;;;;;;15.70;9.67;;;21.90;1.00;;;;;;5030678;28;20912;-80
2022/08/27 03:55:04;;;;;;;18.47;10.00;;;21.90;1.00;;;;;;5024212;28;20563;-77
2022/08/27 04:00:57;;;;;;;14.43;9.13;;;21.80;1.00;;;;;;5027065;28;20430;-80
2022/08/27 04:03:45;;;;;;;20.10;9.57;;;21.80;1.00;;;;;;5027797;28;21295;-80
2022/08/27 04:06:50;;;;;;;13.17;9.10;;;21.80;1.00;;;;;;5019482;28;20506;-80
2022/08/27 04:10:03;;;;;;;16.17;9.23;;;21.80;1.00;;;;;;5029680;28;20421;-81
2022/08/27 04:12:28;;;;;;;15.37;9.23;;;21.80;1.00;;;;;;5023691;28;20407;-73
2022/08/27 04:14:54;;;;;;;20.30;9.60;;;21.90;1.00;;;;;;5032491;28;20459;-72
2022/08/27 04:17:21;;;;;;;15.20;9.10;;;21.90;1.00;;;;;;5021543;28;20189;-72
2022/08/27 04:19:47;;;;;;;13.63;8.57;;;21.90;1.00;;;;;;5023336;28;20177;-73
2022/08/27 04:22:13;;;;;;;12.43;8.50;;;22.00;1.00;;;;;;5018165;28;20435;-72
2022/08/27 04:24:39;;;;;;;15.40;9.10;;;22.00;1.00;;;;;;5025303;28;20176;-72
2022/08/27 04:27:10;;;;;;;15.47;8.33;;;22.00;1.00;;;;;;5027862;28;20494;-80
2022/08/27 04:30:03;;;;;;;13.80;8.80;;;22.10;1.00;;;;;;5028320;28;20191;-80
2022/08/27 04:32:57;;;;;;;13.27;7.57;;;22.10;1.00;;;;;;5015032;28;20437;-80
2022/08/27 04:35:40;;;;;;;16.67;7.93;;;22.20;1.00;;;;;;5028497;28;20998;-80
2022/08/27 04:38:21;;;;;;;15.27;8.53;;;22.20;1.00;;;;;;5031019;28;20781;-80
2022/08/27 04:43:31;;;;;;;14.60;8.57;;;22.20;1.00;;;;;;5024963;28;20410;-73
2022/08/27 04:45:56;;;;;;;17.10;7.93;;;22.20;1.00;;;;;;5026153;28;20436;-73
2022/08/27 04:48:22;;;;;;;12.10;7.93;;;22.20;1.00;;;;;;5015861;28;20185;-73
2022/08/27 04:50:48;;;;;;;18.07;7.93;;;22.20;1.00;;;;;;5020537;28;20183;-72
2022/08/27 04:53:15;;;;;;;15.60;8.67;;;22.20;1.00;;;;;;5024863;28;20176;-72
2022/08/27 04:55:44;;;;;;;17.90;7.57;;;22.30;1.00;;;;;;5020709;28;20176;-77
2022/08/27 04:58:10;;;;;;;9.87;7.30;;;22.30;1.00;;;;;;5024911;28;20411;-72
2022/08/27 05:00:44;;;;;;;12.73;7.50;;;22.30;1.00;;;;;;5021750;28;20552;-72
2022/08/27 05:03:09;;;;;;;13.90;7.90;;;22.30;1.00;;;;;;5020701;28;20265;-73
2022/08/27 05:05:35;;;;;;;12.20;7.43;;;22.30;1.00;;;;;;5019693;28;20516;-72
2022/08/27 05:08:02;;;;;;;16.03;7.43;;;22.30;1.00;;;;;;5018374;28;20666;-72
2022/08/27 05:10:27;;;;;;;16.10;7.60;;;22.30;1.00;;;;;;5019584;28;20184;-72
2022/08/27 05:12:53;;;;;;;11.03;7.70;;;22.40;1.00;;;;;;5015780;28;20928;-72
2022/08/27 05:15:18;;;;;;;10.60;7.37;;;22.30;1.00;;;;;;5027621;28;20195;-74
2022/08/27 05:17:46;;;;;;;14.27;8.13;;;22.30;1.00;;;;;;5020047;28;20202;-75
2022/08/27 05:20:11;;;;;;;12.80;7.40;;;22.30;1.00;;;;;;5028345;28;20251;-75
2022/08/27 05:22:40;;;;;;;14.50;7.60;;;22.30;1.00;;;;;;5018063;28;20449;-75
2022/08/27 05:25:15;;;;;;;18.37;8.33;;;22.30;1.00;;;;;;5019151;28;20211;-75
2022/08/27 05:27:41;;;;;;;12.10;7.27;;;22.30;1.00;;;;;;5025623;28;20400;-78
2022/08/27 05:30:10;;;;;;;13.00;7.27;;;22.30;1.00;;;;;;5018439;28;20436;-78
2022/08/27 05:32:36;;;;;;;12.43;7.27;;;22.30;1.00;;;;;;5023044;28;20439;-78
2022/08/27 05:35:03;;;;;;;13.70;7.50;;;22.30;1.00;;;;;;5026158;28;20451;-78
2022/08/27 05:37:39;;;;;;;12.30;7.40;;;22.40;1.00;;;;;;5033939;28;20415;-78
2022/08/27 05:40:09;;;;;;;11.57;6.50;;;22.40;1.00;;;;;;5018665;28;20752;-78
2022/08/27 05:42:46;;;;;;;14.27;6.27;;;22.50;1.00;;;;;;5024627;28;20402;-78
2022/08/27 05:45:12;;;;;;;12.70;7.73;;;22.50;1.00;;;;;;5020164;28;20414;-78
2022/08/27 05:47:51;;;;;;;11.00;7.20;;;22.60;1.00;;;;;;5021757;28;20413;-78
2022/08/27 05:50:21;;;;;;;13.10;7.40;;;22.60;1.00;;;;;;5020942;28;20422;-78
2022/08/27 05:53:33;;;;;;;17.87;7.20;;;22.60;1.00;;;;;;5032268;28;20776;-78
2022/08/27 05:55:59;;;;;;;14.43;7.40;;;22.60;1.00;;;;;;5014761;28;20424;-78
2022/08/27 06:01:10;;;;;;;9.67;7.17;;;22.80;1.00;;;;;;5017602;28;20409;-76
2022/08/27 06:03:40;;;;;;;9.83;6.93;;;22.70;1.00;;;;;;5027697;28;20417;-75
2022/08/27 06:06:10;;;;;;;10.87;7.40;;;22.80;1.00;;;;;;5018150;28;20889;-75
2022/08/27 06:08:53;;;;;;;13.30;7.20;;;22.70;1.00;;;;;;5022464;28;20463;-74
2022/08/27 06:11:23;;;;;;;12.83;7.20;;;22.70;1.00;;;;;;5024472;28;20424;-74
2022/08/27 06:13:49;;;;;;;13.73;7.50;;;22.80;1.00;;;;;;5035104;28;20492;-70
2022/08/27 06:16:18;;;;;;;13.97;7.57;;;22.70;1.00;;;;;;5026698;28;20428;-70
2022/08/27 06:18:46;;;;;;;12.90;6.87;;;22.80;1.00;;;;;;5022152;28;20200;-69
2022/08/27 06:21:14;;;;;;;25.67;8.00;;;22.80;1.00;;;;;;5032637;28;20429;-69
2022/08/27 06:23:40;;;;;;;13.00;6.77;;;22.80;1.00;;;;;;5025321;28;20419;-70
2022/08/27 06:26:08;;;;;;;9.20;6.07;;;22.90;1.00;;;;;;5025650;28;20453;-69
2022/08/27 06:28:34;;;;;;;10.70;6.83;;;23.00;1.00;;;;;;5031344;28;20227;-70
2022/08/27 06:31:08;;;;;;;9.60;6.20;;;23.10;1.00;;;;;;5017983;28;20445;-79
2022/08/27 06:33:46;;;;;;;11.30;7.17;;;23.00;1.00;;;;;;5020653;28;20934;-78
2022/08/27 06:36:18;;;;;;;11.10;7.50;;;23.00;1.00;;;;;;5037258;28;20411;-78
2022/08/27 06:38:52;;;;;;;17.40;6.80;;;23.00;1.00;;;;;;5022630;28;20793;-79
2022/08/27 06:41:28;;;;;;;20.17;7.83;;;23.10;1.00;;;;;;5020671;28;20436;-78
2022/08/27 06:43:55;;;;;;;15.77;8.23;;;23.10;1.00;;;;;;5025541;28;20418;-78
2022/08/27 06:46:24;;;;;;;18.23;7.90;;;23.10;1.00;;;;;;5034320;28;20465;-73
2022/08/27 06:48:58;;;;;;;19.40;7.67;;;22.90;1.00;;;;;;5024432;28;20740;-73
2022/08/27 06:51:28;;;;;;;16.57;7.70;;;23.00;1.00;;;;;;5021570;28;21000;-73
2022/08/27 06:54:00;;;;;;;14.37;8.13;;;23.00;1.00;;;;;;5026989;28;20423;-73
2022/08/27 06:56:27;;;;;;;13.73;7.00;;;23.10;1.00;;;;;;5030260;28;20416;-73
2022/08/27 06:59:00;;;;;;;21.50;6.63;;;23.10;1.00;;;;;;5017546;28;20416;-80
2022/08/27 07:01:33;;;;;;;14.67;6.37;;;23.30;1.00;;;;;;5033806;28;20793;-81
2022/08/27 07:04:27;;;;;;;15.20;7.40;;;23.40;1.00;;;;;;5036521;28;20769;-81
2022/08/27 07:06:57;;;;;;;17.30;7.17;;;23.50;1.00;;;;;;5036555;28;20386;-80
2022/08/27 07:09:57;;;;;;;10.83;6.80;;;23.50;1.00;;;;;;5035163;28;20400;-80
2022/08/27 07:12:24;;;;;;;10.63;6.50;;;23.60;1.00;;;;;;5019460;28;20873;-73
2022/08/27 07:14:50;;;;;;;10.83;6.73;;;23.70;1.00;;;;;;5027061;28;20456;-73
2022/08/27 07:17:21;;;;;;;11.57;6.70;;;23.70;1.00;;;;;;5029599;28;21000;-73
2022/08/27 07:19:47;;;;;;;12.40;6.70;;;23.80;1.00;;;;;;5021884;28;20185;-73
2022/08/27 07:22:12;;;;;;;16.37;7.13;;;24.00;1.00;;;;;;5029075;28;20464;-73
2022/08/27 07:24:38;;;;;;;9.10;5.70;;;24.10;1.00;;;;;;5015297;28;20171;-73
2022/08/27 07:27:12;;;;;;;12.63;6.90;;;24.20;1.00;;;;;;5029497;28;20258;-73
2022/08/27 07:29:38;;;;;;;11.53;7.17;;;24.30;1.00;;;;;;5016776;28;20618;-73
2022/08/27 07:32:04;;;;;;;12.03;6.70;;;24.50;1.00;;;;;;5015700;28;20462;-73
2022/08/27 07:34:30;;;;;;;10.80;6.73;;;24.80;1.00;;;;;;5023079;28;20467;-73
2022/08/27 07:36:56;;;;;;;8.63;5.90;;;24.90;1.00;;;;;;5032223;28;20431;-73
2022/08/27 07:39:21;;;;;;;13.00;6.53;;;25.10;1.00;;;;;;5025528;28;20185;-74
2022/08/27 07:44:57;;;;;;;10.40;5.90;;;25.40;1.00;;;;;;5025013;28;20190;-80
2022/08/27 07:47:27;;;;;;;10.67;5.40;;;25.50;1.00;;;;;;5034275;28;20454;-80
2022/08/27 07:49:57;;;;;;;11.80;5.90;;;25.60;1.00;;;;;;5023020;28;20427;-80
2022/08/27 07:52:27;;;;;;;11.67;5.73;;;25.60;1.00;;;;;;5034467;28;20962;-80
2022/08/27 07:55:32;;;;;;;7.50;4.93;;;25.60;1.00;;;;;;5035555;28;20480;-80
2022/08/27 07:58:04;;;;;;;7.37;5.17;;;25.60;1.00;;;;;;5035735;28;20501;-80
2022/08/27 08:03:52;;;;;;;9.80;5.30;;;25.70;1.00;;;;;;5016984;28;20402;-80
2022/08/27 08:06:21;;;;;;;9.00;5.40;;;25.90;1.00;;;;;;5015534;28;20400;-80
2022/08/27 08:09:15;;;;;;;8.13;5.63;;;25.90;1.00;;;;;;5015993;28;20165;-80
2022/08/27 08:11:57;;;;;;;11.50;5.83;;;25.90;1.00;;;;;;5030461;28;20431;-80
2022/08/27 08:14:33;;;;;;;10.00;5.63;;;25.70;1.00;;;;;;5020461;28;20557;-80
2022/08/27 08:20:33;;;;;;;7.73;4.33;;;25.60;1.00;;;;;;5035063;28;20438;-80
2022/08/27 08:23:09;;;;;;;7.00;4.50;;;25.80;1.00;;;;;;5021858;28;20409;-80
2022/08/27 08:26:03;;;;;;;5.90;3.97;;;25.90;1.00;;;;;;5014964;28;20412;-82
2022/08/27 08:28:29;;;;;;;7.47;4.30;;;26.00;1.00;;;;;;5027732;28;20519;-83
2022/08/27 08:31:27;;;;;;;9.53;4.60;;;26.10;1.00;;;;;;5034375;28;20941;-81
2022/08/27 08:34:28;;;;;;;4.87;4.00;;;26.10;1.00;;;;;;5030626;28;21417;-82
2022/08/27 08:36:57;;;;;;;10.53;4.33;;;26.20;1.00;;;;;;5023747;28;20943;-81
2022/08/27 08:39:35;;;;;;;9.80;5.43;;;26.50;1.00;;;;;;5026656;28;20790;-82
2022/08/27 08:45:33;;;;;;;7.07;4.00;;;27.00;1.00;;;;;;5023598;28;20401;-82
2022/08/27 08:51:31;;;;;;;7.80;5.27;;;27.60;1.00;;;;;;5029044;28;20424;-82
2022/08/27 08:54:33;;;;;;;6.83;4.20;;;27.90;1.00;;;;;;5030490;28;20815;-81
2022/08/27 08:57:31;;;;;;;6.70;4.00;;;28.00;1.00;;;;;;5030856;28;20425;-81
2022/08/27 09:00:13;;;;;;;5.60;3.67;;;28.10;1.00;;;;;;5049727;28;20447;-83
2022/08/27 09:02:45;;;;;;;8.80;4.40;;;27.90;1.00;;;;;;5055687;28;20443;-83
2022/08/27 09:05:24;;;;;;;4.33;3.90;;;27.90;1.00;;;;;;5042425;28;20442;-83
2022/08/27 09:08:14;;;;;;;8.53;4.07;;;27.80;1.00;;;;;;5043163;28;20449;-83
2022/08/27 09:11:02;;;;;;;6.83;4.10;;;27.90;1.00;;;;;;5051215;28;20445;-82
2022/08/27 09:14:18;;;;;;;6.37;3.97;;;28.10;1.00;;;;;;5050709;28;20847;-82
2022/08/27 09:16:45;;;;;;;13.30;4.33;;;28.30;1.00;;;;;;4988051;28;20505;-81
2022/08/27 09:19:15;;;;;;;8.60;3.90;;;28.70;1.00;;;;;;5006796;28;20431;-81
2022/08/27 09:21:52;;;;;;;5.67;4.40;;;28.90;1.00;;;;;;4995100;28;20451;-81
2022/08/27 09:24:57;;;;;;;4.60;3.70;;;29.00;1.00;;;;;;4992496;28;20786;-82
2022/08/27 09:27:41;;;;;;;8.23;3.87;;;29.10;1.00;;;;;;4991828;28;20446;-81
2022/08/27 09:30:28;;;;;;;4.93;3.87;;;29.10;1.00;;;;;;4976075;28;20542;-81
2022/08/27 09:33:03;;;;;;;6.10;3.97;;;29.00;1.00;;;;;;4975784;28;20490;-82
2022/08/27 09:35:50;;;;;;;4.63;4.10;;;28.90;1.00;;;;;;4973861;28;20472;-81
2022/08/27 09:38:40;;;;;;;6.33;3.97;;;28.60;1.00;;;;;;4968821;28;20780;-81
2022/08/27 09:41:24;;;;;;;5.00;3.87;;;28.50;1.00;;;;;;4959917;28;20432;-81
2022/08/27 09:44:07;;;;;;;3.43;3.13;;;28.30;1.00;;;;;;4949662;28;20427;-83
2022/08/27 09:46:59;;;;;;;10.63;4.20;;;28.30;1.00;;;;;;4966057;28;20423;-84
2022/08/27 09:56:37;;;;;;;4.03;3.63;;;27.90;1.00;;;;;;5026628;28;21104;-83
2022/08/27 10:02:26;;;;;;;3.97;3.57;;;27.70;1.00;;;;;;5032927;28;20423;-82
2022/08/27 10:05:15;;;;;;;4.17;3.60;;;27.80;1.00;;;;;;5032947;28;20471;-83
2022/08/27 10:11:13;;;;;;;3.60;3.30;;;28.00;1.00;;;;;;5024805;28;20462;-82
2022/08/27 10:14:06;;;;;;;7.33;4.00;;;28.20;1.00;;;;;;5023888;28;20471;-84
2022/08/27 10:16:54;;;;;;;3.50;3.20;;;28.40;1.00;;;;;;4999248;28;20812;-81
2022/08/27 10:19:56;;;;;;;6.17;3.70;;;28.60;1.00;;;;;;5024602;28;20426;-81
2022/08/27 10:25:51;;;;;;;3.40;2.97;;;28.90;1.00;;;;;;5018890;28;20550;-81
2022/08/27 10:28:54;;;;;;;3.23;3.03;;;29.10;1.00;;;;;;5022210;28;20931;-81
2022/08/27 10:31:39;;;;;;;4.37;3.10;;;29.20;1.00;;;;;;5021655;28;20445;-81
2022/08/27 10:34:33;;;;;;;4.60;3.20;;;29.10;1.00;;;;;;5030400;28;20811;-83
2022/08/27 10:40:36;;;;;;;3.67;3.27;;;29.20;1.00;;;;;;5017825;28;20409;-83
2022/08/27 10:43:39;;;;;;;7.47;3.10;;;29.20;1.00;;;;;;5002422;28;20542;-79
2022/08/27 10:53:04;;;;;;;8.03;2.90;;;29.60;1.00;;;;;;5025311;28;20422;-83
2022/08/27 10:55:35;;;;;;;3.70;2.90;;;29.50;1.00;;;;;;5021633;28;20500;-83
2022/08/27 10:58:39;;;;;;;4.17;3.30;;;29.50;1.00;;;;;;5022261;28;20426;-79
2022/08/27 11:01:45;;;;;;;3.47;3.20;;;29.60;1.00;;;;;;5026932;28;20830;-78
2022/08/27 11:04:36;;;;;;;3.20;2.90;;;29.60;1.00;;;;;;5024780;28;20444;-78
2022/08/27 11:07:42;;;;;;;4.87;3.37;;;29.60;1.00;;;;;;5032485;28;20431;-78
2022/08/27 11:10:18;;;;;;;3.43;3.13;;;29.60;1.00;;;;;;5028779;28;20433;-78
2022/08/27 11:13:21;;;;;;;4.30;3.40;;;29.80;1.00;;;;;;5022907;28;20427;-78
2022/08/27 11:16:26;;;;;;;8.23;3.53;;;29.90;1.00;;;;;;5023426;28;20567;-85
2022/08/27 11:19:18;;;;;;;4.10;3.80;;;30.20;1.00;;;;;;5010668;28;20456;-85
2022/08/27 11:22:17;;;;;;;7.37;3.80;;;30.30;1.00;;;;;;5027728;28;20487;-85
2022/08/27 11:25:25;;;;;;;7.83;3.83;;;30.10;1.00;;;;;;4953997;29;20435;-85
2022/08/27 11:31:36;;;;;;;4.47;3.57;;;30.40;1.00;;;;;;4954563;29;20445;-79
2022/08/27 11:34:20;;;;;;;8.43;4.17;;;30.40;1.00;;;;;;4951795;29;20561;-70
2022/08/27 11:36:54;;;;;;;4.90;3.87;;;30.20;1.00;;;;;;4946498;29;20500;-69
2022/08/27 11:39:41;;;;;;;4.50;3.80;;;30.00;1.00;;;;;;4950881;29;20429;-70
2022/08/27 11:42:09;;;;;;;3.93;3.63;;;29.90;1.00;;;;;;4952138;29;20957;-70
2022/08/27 11:44:47;;;;;;;4.63;3.67;;;29.80;1.00;;;;;;4948218;29;20468;-70
2022/08/27 11:47:22;;;;;;;4.27;3.83;;;29.80;1.00;;;;;;4955487;29;20440;-75
2022/08/27 11:50:00;;;;;;;6.30;3.40;;;29.90;1.00;;;;;;4955743;29;20491;-76
2022/08/27 11:52:34;;;;;;;4.93;3.70;;;29.90;1.00;;;;;;4955564;29;20420;-76
2022/08/27 11:55:28;;;;;;;10.97;3.57;;;30.00;1.00;;;;;;4955405;29;20466;-75
2022/08/27 11:58:24;;;;;;;9.43;3.70;;;30.10;1.00;;;;;;4955897;29;20474;-75
2022/08/27 12:01:23;;;;;;;10.03;4.00;;;30.20;1.00;;;;;;4998570;28;20430;-75
2022/08/27 12:04:29;;;;;;;4.40;3.60;;;30.30;1.00;;;;;;5031654;28;20413;-76
2022/08/27 12:07:12;;;;;;;5.43;3.90;;;30.40;1.00;;;;;;4968965;28;20428;-75
2022/08/27 12:10:02;;;;;;;4.97;4.40;;;30.40;1.00;;;;;;4981436;28;20518;-76
2022/08/27 12:13:03;;;;;;;4.43;4.03;;;30.40;1.00;;;;;;4987627;28;20435;-76
2022/08/27 12:15:47;;;;;;;10.10;3.87;;;30.40;1.00;;;;;;4994167;28;20456;-70
2022/08/27 12:18:34;;;;;;;5.10;3.87;;;30.30;1.00;;;;;;4992793;28;20440;-70
2022/08/27 12:21:37;;;;;;;7.57;4.23;;;30.30;1.00;;;;;;4993635;28;20415;-69
2022/08/27 12:24:35;;;;;;;5.30;3.70;;;30.20;1.00;;;;;;4954268;29;20791;-70
2022/08/27 12:27:14;;;;;;;4.60;4.10;;;30.20;1.00;;;;;;4948223;29;20965;-70
2022/08/27 12:29:51;;;;;;;4.03;3.60;;;30.30;1.00;;;;;;4948090;29;20449;-70
2022/08/27 12:32:35;;;;;;;3.73;3.43;;;30.40;1.00;;;;;;4947348;28;20448;-69
2022/08/27 12:35:21;;;;;;;8.00;4.03;;;30.40;1.00;;;;;;4951286;29;20478;-70
2022/08/27 12:38:12;;;;;;;4.27;3.80;;;30.50;1.00;;;;;;4926482;29;20425;-70
2022/08/27 12:40:41;;;;;;;13.80;4.07;;;30.50;1.00;;;;;;4921549;29;20495;-70
2022/08/27 12:43:19;;;;;;;8.73;3.87;;;30.60;1.00;;;;;;4913836;28;20429;-70
2022/08/27 12:45:50;;;;;;;4.20;3.47;;;30.60;1.00;;;;;;4965071;28;20425;-76
2022/08/27 12:48:29;;;;;;;5.73;3.50;;;30.60;1.00;;;;;;4973067;28;20424;-74
2022/08/27 12:50:59;;;;;;;4.60;3.50;;;30.60;1.00;;;;;;4961350;28;20503;-74
2022/08/27 12:54:15;;;;;;;4.13;3.50;;;30.40;1.00;;;;;;4962423;28;20425;-77
2022/08/27 12:56:58;;;;;;;5.40;3.80;;;30.40;1.00;;;;;;4969006;28;20447;-74
2022/08/27 13:00:01;;;;;;;5.40;4.17;;;30.30;1.00;;;;;;4966580;28;20433;-76
2022/08/27 13:02:58;;;;;;;5.17;3.60;;;30.30;1.00;;;;;;5023799;28;20423;-76
2022/08/27 13:05:36;;;;;;;3.30;3.10;;;30.50;1.00;;;;;;5020390;28;20480;-75
2022/08/27 13:08:03;;;;;;;4.30;3.20;;;30.90;1.00;;;;;;5016928;28;20411;-74
2022/08/27 13:10:30;;;;;;;5.80;3.43;;;31.20;1.00;;;;;;5014732;28;20755;-73
2022/08/27 13:13:07;;;;;;;5.87;3.20;;;31.60;1.00;;;;;;5026695;28;20515;-76
2022/08/27 13:15:41;;;;;;;5.60;3.67;;;31.90;1.00;;;;;;5023567;28;20455;-72
2022/08/27 13:18:09;;;;;;;3.80;3.50;;;32.10;1.00;;;;;;5025011;28;20832;-69
2022/08/27 13:20:37;;;;;;;3.33;3.07;;;32.50;1.00;;;;;;5020078;28;20439;-71
2022/08/27 13:23:03;;;;;;;4.60;3.30;;;32.80;1.00;;;;;;5026532;28;20446;-69
2022/08/27 13:25:32;;;;;;;3.73;3.40;;;33.00;1.00;;;;;;5015376;28;20567;-69
2022/08/27 13:28:07;;;;;;;4.70;3.03;;;33.00;1.00;;;;;;5022197;28;20476;-69
2022/08/27 13:30:44;;;;;;;3.60;3.30;;;32.90;1.00;;;;;;5025013;28;20439;-71
2022/08/27 13:33:20;;;;;;;5.63;3.70;;;32.70;1.00;;;;;;5022052;28;20442;-72
2022/08/27 13:35:46;;;;;;;6.87;3.17;;;32.70;1.00;;;;;;5014099;28;20444;-70
2022/08/27 13:38:14;;;;;;;4.97;3.07;;;32.70;1.00;;;;;;5015869;28;20752;-70
2022/08/27 13:40:54;;;;;;;3.23;3.03;;;32.50;1.00;;;;;;5024904;28;20924;-71
2022/08/27 13:43:28;;;;;;;4.80;3.70;;;32.10;1.00;;;;;;5025699;28;20416;-70
2022/08/27 13:46:00;;;;;;;4.67;3.70;;;31.80;1.00;;;;;;5016807;28;20435;-77
2022/08/27 13:48:26;;;;;;;3.73;3.43;;;31.60;1.00;;;;;;5026525;28;20835;-72
2022/08/27 13:50:54;;;;;;;3.63;3.40;;;31.40;1.00;;;;;;5030327;28;20420;-72
2022/08/27 13:56:31;;;;;;;6.87;3.77;;;31.00;1.00;;;;;;5022898;28;20425;-71
2022/08/27 13:59:25;;;;;;;4.23;3.83;;;30.80;1.00;;;;;;5021165;28;20936;-71
2022/08/27 14:01:54;;;;;;;4.43;3.97;;;30.60;1.00;;;;;;5014120;28;20891;-69
2022/08/27 14:04:23;;;;;;;5.87;4.33;;;30.20;1.00;;;;;;5018356;28;20506;-69
2022/08/27 14:06:49;;;;;;;5.10;3.60;;;30.00;1.00;;;;;;5025383;28;20441;-69
2022/08/27 14:09:24;;;;;;;4.30;3.90;;;29.80;1.00;;;;;;5030858;28;20758;-69
2022/08/27 14:12:01;;;;;;;4.57;4.07;;;29.50;1.00;;;;;;5026612;28;20426;-69
2022/08/27 14:14:29;;;;;;;6.63;3.83;;;29.40;1.00;;;;;;5020648;28;20466;-70
2022/08/27 14:17:23;;;;;;;5.83;3.67;;;29.30;1.00;;;;;;5018905;28;20428;-77
2022/08/27 14:19:51;;;;;;;4.40;3.90;;;29.30;1.00;;;;;;5029047;28;20818;-77
2022/08/27 14:22:18;;;;;;;8.50;4.73;;;29.20;1.00;;;;;;5025129;28;20777;-75
2022/08/27 14:24:44;;;;;;;10.97;4.30;;;29.10;1.00;;;;;;5018717;28;20439;-77
2022/08/27 14:27:15;;;;;;;4.67;4.23;;;29.20;1.00;;;;;;5015367;28;20518;-78
2022/08/27 14:30:17;;;;;;;6.10;3.93;;;29.20;1.00;;;;;;5032580;28;20599;-77
2022/08/27 14:32:43;;;;;;;5.13;4.10;;;29.30;1.00;;;;;;5022878;28;20458;-74
2022/08/27 14:35:09;;;;;;;5.80;4.50;;;29.40;1.00;;;;;;5018607;28;20458;-73
2022/08/27 14:37:37;;;;;;;8.73;3.63;;;29.60;1.00;;;;;;5026358;28;20462;-74
2022/08/27 14:40:04;;;;;;;5.40;3.90;;;29.60;1.00;;;;;;5033349;28;20439;-73
2022/08/27 14:42:29;;;;;;;5.17;4.00;;;29.80;1.00;;;;;;5017296;28;20897;-74
2022/08/27 14:44:55;;;;;;;5.67;3.87;;;29.80;1.00;;;;;;5024868;28;20437;-73